Time;durP1;ratioP1;P1;durP2;ratioP2;P2;SDS_P1;SDS_P2;PMS_P1;PMS_P2;Temp;Humidity;BMP_temperature;BMP_pressure;BME280_temperature;BME280_humidity;BME280_pressure;Samples;Min_cycle;Max_cycle;Signal;HPM_P1;HPM_P2
2022/12/12 07:50:37;;;;;;;3.80;3.50;;;4.60;99.90;;;-142.21;73.02;112049.66;5140289;27;20572;-81
2022/12/12 07:53:05;;;;;;;4.90;3.80;;;16.70;92.10;;;-142.21;64.51;112049.66;5114232;28;20469;-80
2022/12/12 07:55:32;;;;;;;5.73;4.10;;;17.90;81.40;;;-142.21;60.79;112049.66;5109286;28;20874;-80
2022/12/12 07:58:00;;;;;;;4.53;3.50;;;18.90;75.20;;;-142.21;56.23;112049.66;5108294;28;20489;-78
2022/12/12 08:00:27;;;;;;;3.60;3.27;;;19.80;70.10;;;-142.21;52.21;112049.66;5109100;28;20474;-80
2022/12/12 08:02:55;;;;;;;3.80;3.13;;;20.40;66.00;;;-142.21;49.71;112049.66;5108377;28;20520;-81
2022/12/12 08:05:22;;;;;;;4.20;3.10;;;21.00;63.50;;;-142.21;47.85;112049.66;5108970;28;20212;-81
2022/12/12 08:07:51;;;;;;;5.30;3.30;;;21.40;61.10;;;-142.21;46.92;112049.66;5108858;28;20208;-80
2022/12/12 08:10:18;;;;;;;4.23;3.37;;;21.70;59.10;;;-142.21;45.37;112049.66;5108926;28;20295;-80
2022/12/12 08:12:46;;;;;;;5.20;3.67;;;22.00;58.10;;;-142.21;45.29;112049.66;5108520;28;20679;-83
2022/12/12 08:15:17;;;;;;;4.40;3.37;;;22.20;57.50;;;-142.21;44.90;112049.66;5108527;28;20199;-81
2022/12/12 08:17:45;;;;;;;3.70;3.10;;;22.50;56.10;;;-142.21;43.74;112049.66;5108435;28;20219;-80
2022/12/12 08:20:12;;;;;;;3.77;3.43;;;22.60;55.50;;;-142.21;44.01;112049.66;5108682;28;20257;-80
2022/12/12 08:22:40;;;;;;;3.70;3.30;;;22.80;55.20;;;-142.21;43.71;112049.66;5108241;28;20211;-83
2022/12/12 08:25:10;;;;;;;5.93;3.93;;;22.90;54.60;;;-142.21;43.06;112049.66;5109089;28;20265;-81
2022/12/12 08:27:38;;;;;;;5.13;3.90;;;23.00;54.00;;;-142.21;42.40;112049.66;5108130;28;20192;-82
2022/12/12 08:30:08;;;;;;;4.33;3.40;;;23.10;53.70;;;-142.21;42.18;112049.66;5108300;28;20223;-82
2022/12/12 08:32:36;;;;;;;5.13;3.60;;;23.20;53.10;;;-142.21;42.28;112049.66;5108685;28;20569;-82
2022/12/12 08:35:05;;;;;;;4.73;3.37;;;23.30;52.90;;;-142.21;42.33;112049.66;5108502;28;20225;-80
2022/12/12 08:37:32;;;;;;;3.73;3.27;;;23.40;52.70;;;-142.21;41.88;112049.66;5108268;28;20208;-81
2022/12/12 08:40:00;;;;;;;4.23;3.40;;;23.40;52.00;;;-142.21;41.83;112049.66;5107683;28;20247;-82
2022/12/12 08:42:29;;;;;;;5.47;3.27;;;23.40;51.70;;;-142.21;41.46;112049.66;5107955;28;20213;-82
2022/12/12 08:44:56;;;;;;;3.30;3.00;;;23.50;51.70;;;-142.21;41.35;112049.66;5107786;28;20206;-82
2022/12/12 08:47:23;;;;;;;3.47;3.00;;;23.50;52.00;;;-142.21;41.21;112049.66;5107993;28;20216;-81
2022/12/12 08:49:51;;;;;;;4.63;3.33;;;23.60;51.20;;;-142.21;41.44;112049.66;5102838;28;20248;-82
2022/12/12 08:52:18;;;;;;;4.40;3.30;;;23.60;50.90;;;-142.21;40.82;112049.66;5094808;28;20621;-82
2022/12/12 08:54:46;;;;;;;3.60;3.30;;;23.60;50.80;;;-142.21;40.78;112049.66;5093850;28;20261;-81
2022/12/12 08:57:13;;;;;;;3.47;3.17;;;23.60;50.40;;;-142.21;41.00;112049.66;5094048;28;20212;-82
2022/12/12 08:59:42;;;;;;;3.77;3.37;;;23.60;50.50;;;-142.21;40.94;112049.66;5093640;28;20712;-82
2022/12/12 09:02:12;;;;;;;3.40;3.10;;;23.60;50.10;;;-142.21;40.56;112049.66;5094263;28;20224;-81
2022/12/12 09:04:39;;;;;;;4.03;3.40;;;23.70;50.40;;;-142.21;40.73;112049.66;5093669;28;20212;-82
2022/12/12 09:07:07;;;;;;;3.50;3.10;;;23.70;50.20;;;-142.21;40.23;112049.66;5094481;28;20559;-82
2022/12/12 09:09:34;;;;;;;4.47;3.10;;;23.70;49.80;;;-142.21;40.32;112049.66;5094015;28;20211;-82
2022/12/12 09:12:02;;;;;;;4.10;3.23;;;23.70;49.60;;;-142.21;40.60;112049.66;5093106;28;20234;-82
2022/12/12 09:14:29;;;;;;;4.17;3.10;;;23.70;49.60;;;-142.21;40.19;112049.66;5094194;28;20257;-82
2022/12/12 09:16:58;;;;;;;3.70;3.23;;;23.70;49.60;;;-142.21;39.98;112049.66;5093648;28;20608;-81
2022/12/12 09:19:25;;;;;;;3.80;3.27;;;23.80;49.40;;;-142.21;39.85;112049.66;5093820;28;20570;-80
2022/12/12 09:21:52;;;;;;;3.40;3.10;;;23.80;49.40;;;-142.21;39.81;112049.66;5093838;28;20642;-81
2022/12/12 09:24:20;;;;;;;3.23;2.93;;;23.80;49.30;;;-142.21;39.83;112049.66;5094026;28;20235;-82
2022/12/12 09:26:47;;;;;;;3.00;2.80;;;23.80;49.30;;;-142.21;39.65;112049.66;5093062;28;20230;-80
2022/12/12 09:29:15;;;;;;;3.40;2.97;;;23.80;49.00;;;-142.21;40.00;112049.66;5093813;28;20276;-83
2022/12/12 09:31:42;;;;;;;3.57;2.90;;;23.80;49.20;;;-142.21;39.96;112049.66;5093217;28;20215;-81
2022/12/12 09:34:11;;;;;;;3.07;2.87;;;23.80;49.00;;;-142.21;39.48;112049.66;5093526;28;20204;-82
2022/12/12 09:36:39;;;;;;;3.00;2.70;;;23.80;48.90;;;-142.21;39.55;112049.66;5093818;28;20212;-81
2022/12/12 09:39:06;;;;;;;3.00;2.80;;;23.80;48.90;;;-142.21;39.73;112049.66;5093231;28;20280;-81
2022/12/12 09:41:34;;;;;;;3.07;2.80;;;23.80;48.80;;;-142.21;39.59;112049.66;5093361;28;20249;-82
2022/12/12 09:44:08;;;;;;;4.63;3.13;;;23.80;48.80;;;-142.21;39.62;112049.66;5093414;28;20258;-81
2022/12/12 09:46:40;;;;;;;3.47;2.90;;;23.80;48.70;;;-142.21;39.10;112049.66;5093460;28;20215;-80
2022/12/12 09:49:21;;;;;;;3.60;3.30;;;23.80;48.70;;;-142.21;39.50;112049.66;5093228;28;20312;-81
2022/12/12 09:51:52;;;;;;;3.33;3.03;;;23.80;48.30;;;-142.21;39.39;112049.66;5093057;28;20192;-82
2022/12/12 09:54:23;;;;;;;3.27;2.80;;;23.80;48.50;;;-142.21;39.42;112049.66;5093614;28;20211;-82
2022/12/12 09:57:20;;;;;;;3.67;3.37;;;23.80;48.40;;;-142.21;39.32;112049.66;5092711;28;20641;-82
2022/12/12 09:59:57;;;;;;;3.03;2.77;;;23.80;47.90;;;-142.21;39.28;112049.66;5092779;28;20316;-82
2022/12/12 10:02:54;;;;;;;3.53;3.23;;;23.80;48.30;;;-142.21;39.02;112049.66;5092112;28;20241;-82
2022/12/12 10:05:37;;;;;;;3.20;2.90;;;23.80;47.90;;;-142.21;39.27;112049.66;5093732;28;20629;-82
2022/12/12 10:08:18;;;;;;;3.23;2.93;;;23.80;47.90;;;-142.21;39.03;112049.66;5092782;28;20192;-83
2022/12/12 10:10:55;;;;;;;3.20;2.90;;;23.80;48.30;;;-142.21;38.80;112049.66;5092629;28;20200;-83
2022/12/12 10:13:29;;;;;;;3.27;2.90;;;23.80;48.10;;;-142.21;38.77;112049.66;5093418;28;20212;-82
2022/12/12 10:16:04;;;;;;;3.20;2.90;;;23.80;47.90;;;-142.21;39.07;112049.66;5093906;28;20651;-81
2022/12/12 10:18:39;;;;;;;4.63;3.00;;;23.80;47.90;;;-142.21;39.14;112049.66;5110966;28;20183;-83
2022/12/12 10:21:19;;;;;;;3.03;2.83;;;23.80;47.90;;;-142.21;39.15;112049.66;5117664;28;20199;-84
2022/12/12 10:23:50;;;;;;;2.83;2.63;;;23.80;47.90;;;-142.21;38.91;112049.66;5091941;28;20237;-83
2022/12/12 10:26:24;;;;;;;4.40;3.13;;;23.90;47.90;;;-142.21;38.89;112049.66;5093068;28;20212;-83
2022/12/12 10:28:57;;;;;;;4.13;3.00;;;23.80;47.90;;;-142.21;38.83;112049.66;5092111;28;20571;-83
2022/12/12 10:31:40;;;;;;;3.50;3.17;;;23.90;47.90;;;-142.21;38.78;112049.66;5092912;28;20230;-83
2022/12/12 10:34:30;;;;;;;3.23;2.93;;;23.80;47.70;;;-142.21;38.94;112049.66;5092799;28;20693;-83
2022/12/12 10:37:21;;;;;;;3.07;2.77;;;23.80;47.60;;;-142.21;38.71;112049.66;5092038;28;20299;-83
2022/12/12 10:40:03;;;;;;;3.77;3.40;;;23.90;47.50;;;-142.21;38.55;112049.66;5091536;28;20309;-82
2022/12/12 10:42:39;;;;;;;4.97;3.00;;;23.80;47.50;;;-142.21;38.70;112049.66;5092834;28;20628;-84
2022/12/12 10:45:40;;;;;;;3.20;2.90;;;23.80;47.90;;;-142.21;38.80;112049.66;5091796;28;20232;-83
2022/12/12 10:48:07;;;;;;;2.80;2.60;;;23.80;47.40;;;-142.21;38.37;112049.66;5088846;28;20207;-83
2022/12/12 10:50:41;;;;;;;3.20;2.90;;;23.80;47.60;;;-142.21;38.67;112049.66;5092600;28;20261;-82
2022/12/12 10:53:12;;;;;;;3.23;2.93;;;23.90;47.70;;;-142.21;38.66;112049.66;5091903;28;20210;-83
2022/12/12 10:55:49;;;;;;;3.30;3.10;;;23.90;47.50;;;-142.21;38.50;112049.66;5092639;28;20201;-82
2022/12/12 10:58:17;;;;;;;3.33;3.03;;;23.90;47.50;;;-142.21;38.27;112049.66;5092759;28;20611;-81
2022/12/12 11:00:48;;;;;;;3.40;3.10;;;23.90;47.50;;;-142.21;38.26;112049.66;5091150;28;20231;-81
2022/12/12 11:03:27;;;;;;;3.37;3.07;;;23.90;47.50;;;-142.21;38.71;112049.66;5092629;28;20195;-83
2022/12/12 11:05:56;;;;;;;2.80;2.60;;;23.90;47.20;;;-142.21;38.34;112049.66;5091580;28;20259;-84
2022/12/12 11:08:30;;;;;;;3.47;3.17;;;23.90;47.40;;;-142.21;38.69;112049.66;5091992;28;20215;-82
2022/12/12 11:11:08;;;;;;;3.33;3.03;;;23.90;47.10;;;-142.21;38.45;112049.66;5091665;28;20245;-82
2022/12/12 11:13:46;;;;;;;3.03;2.83;;;23.90;47.20;;;-142.21;38.46;112049.66;5092109;28;20203;-83
2022/12/12 11:16:18;;;;;;;3.37;3.07;;;23.90;47.10;;;-142.21;38.79;112049.66;5092234;28;20298;-81
2022/12/12 11:19:07;;;;;;;3.33;3.07;;;23.90;47.20;;;-142.21;38.39;112049.66;5091397;28;20538;-82
2022/12/12 11:21:38;;;;;;;3.17;2.87;;;23.90;46.80;;;-142.21;38.14;112049.66;5092083;28;20538;-84
2022/12/12 11:24:14;;;;;;;3.37;3.07;;;23.90;47.20;;;-142.21;38.52;112049.66;5091027;28;20448;-84
2022/12/12 11:26:49;;;;;;;3.43;3.13;;;23.90;47.00;;;-142.21;38.46;112049.66;5092133;28;20593;-82
2022/12/12 11:29:35;;;;;;;3.20;2.90;;;23.90;47.00;;;-142.21;38.62;112049.66;5092470;28;20292;-82
2022/12/12 11:32:04;;;;;;;3.30;3.00;;;23.90;46.80;;;-142.21;38.39;112049.66;5091618;28;20195;-82
2022/12/12 11:34:39;;;;;;;4.00;2.73;;;23.90;47.00;;;-142.21;38.50;112049.66;5091962;28;20235;-83
2022/12/12 11:37:14;;;;;;;3.43;2.73;;;23.90;47.10;;;-142.21;38.28;112049.66;5090904;28;20570;-83
2022/12/12 11:39:47;;;;;;;3.07;2.83;;;23.90;46.90;;;-142.21;38.35;112049.66;5091971;28;20291;-83
2022/12/12 11:42:25;;;;;;;3.10;2.80;;;23.90;46.90;;;-142.21;38.53;112049.66;5091615;28;20261;-83
2022/12/12 11:45:02;;;;;;;3.10;2.80;;;23.90;47.00;;;-142.21;38.25;112049.66;5091613;28;20291;-83
2022/12/12 11:47:37;;;;;;;3.40;3.10;;;23.80;46.70;;;-142.21;38.37;112049.66;5091871;28;20211;-82
2022/12/12 11:50:20;;;;;;;3.40;3.10;;;23.90;47.00;;;-142.21;38.36;112049.66;5091041;28;20255;-82
2022/12/12 11:52:49;;;;;;;3.00;2.80;;;23.80;46.60;;;-142.21;38.48;112049.66;5091070;28;20245;-81
2022/12/12 11:55:27;;;;;;;3.40;3.10;;;23.80;46.90;;;-142.21;38.76;112049.66;5092357;28;20210;-82
2022/12/12 11:58:12;;;;;;;3.53;3.23;;;23.80;46.80;;;-142.21;38.50;112049.66;5091530;28;20203;-82
2022/12/12 12:00:51;;;;;;;3.10;2.90;;;23.80;46.80;;;-142.21;38.33;112049.66;5091294;28;20281;-84
2022/12/12 12:03:40;;;;;;;3.20;2.90;;;23.80;46.70;;;-142.21;38.33;112049.66;5091815;28;20203;-82
2022/12/12 12:06:35;;;;;;;2.90;2.70;;;23.90;47.30;;;-142.21;38.23;112049.66;5090890;28;20214;-82
2022/12/12 12:09:24;;;;;;;3.40;3.10;;;23.90;46.50;;;-142.21;38.03;112049.66;5091515;28;20228;-84
2022/12/12 12:12:09;;;;;;;3.43;3.13;;;23.80;46.50;;;-142.21;38.41;112049.66;5089320;28;20205;-82
2022/12/12 12:14:58;;;;;;;3.50;3.20;;;23.80;46.60;;;-142.21;38.15;112049.66;5091704;28;20212;-82
2022/12/12 12:17:56;;;;;;;3.50;3.20;;;23.80;46.60;;;-142.21;38.07;112049.66;5091554;28;20213;-81
2022/12/12 12:20:42;;;;;;;3.40;3.10;;;23.80;46.60;;;-142.21;38.24;112049.66;5091119;28;20319;-82
2022/12/12 12:23:24;;;;;;;3.10;2.80;;;23.90;46.70;;;-142.21;37.80;112049.66;5090941;28;20200;-83
2022/12/12 12:25:59;;;;;;;3.40;3.10;;;23.90;46.60;;;-142.21;38.32;112049.66;5093049;28;20191;-81
2022/12/12 12:29:10;;;;;;;3.23;2.80;;;23.90;46.60;;;-142.21;37.83;112049.66;5095311;28;20196;-81
2022/12/12 12:31:51;;;;;;;3.23;2.93;;;23.80;46.30;;;-142.21;37.91;112049.66;5087571;28;20212;-81
2022/12/12 12:34:32;;;;;;;3.10;2.90;;;23.90;46.60;;;-142.21;37.69;112049.66;5094771;28;20264;-82
2022/12/12 12:37:19;;;;;;;2.70;2.50;;;23.90;46.50;;;-142.21;37.56;112049.66;5094933;28;20208;-81
2022/12/12 12:40:05;;;;;;;3.10;2.80;;;23.90;46.40;;;-142.21;37.77;112049.66;5094828;28;20223;-82
2022/12/12 12:42:59;;;;;;;3.30;2.90;;;24.00;46.40;;;-142.21;37.15;112049.66;5095194;28;20569;-81
2022/12/12 12:45:44;;;;;;;3.10;2.90;;;23.90;46.20;;;-142.21;37.76;112049.66;5094651;28;20226;-81
2022/12/12 12:48:25;;;;;;;3.40;3.10;;;24.00;46.40;;;-142.21;37.16;112049.66;5094225;28;20210;-80
2022/12/12 12:51:05;;;;;;;3.40;3.10;;;23.90;46.00;;;-142.21;37.27;112049.66;5094446;28;20250;-81
2022/12/12 12:53:40;;;;;;;3.30;3.00;;;24.00;46.30;;;-142.21;37.46;112049.66;5087586;28;20252;-83
2022/12/12 12:56:20;;;;;;;3.83;3.20;;;24.00;46.30;;;-142.21;37.35;112049.66;5073912;28;20640;-82
2022/12/12 12:58:51;;;;;;;3.47;3.17;;;24.00;46.20;;;-142.21;37.15;112049.66;5074457;28;20287;-81
2022/12/12 13:01:27;;;;;;;3.30;3.00;;;24.10;46.40;;;-142.21;37.10;112049.66;5074410;28;20236;-82
2022/12/12 13:04:03;;;;;;;3.30;3.00;;;24.00;46.10;;;-142.21;37.06;112049.66;5073602;28;20299;-81
2022/12/12 13:06:43;;;;;;;3.13;2.83;;;24.10;46.20;;;-142.21;37.29;112049.66;5074223;28;20212;-82
2022/12/12 13:09:27;;;;;;;3.20;2.90;;;24.10;46.00;;;-142.21;36.88;112049.66;5073690;28;20262;-83
2022/12/12 13:12:03;;;;;;;3.17;2.93;;;24.10;46.10;;;-142.21;36.98;112049.66;5073542;28;20212;-82
2022/12/12 13:14:44;;;;;;;2.90;2.60;;;24.10;46.10;;;-142.21;36.79;112049.66;5074412;28;20205;-83
2022/12/12 13:17:20;;;;;;;3.37;3.00;;;24.00;45.90;;;-142.21;36.91;112049.66;5074166;28;20221;-82
2022/12/12 13:19:52;;;;;;;2.90;2.70;;;24.10;46.10;;;-142.21;36.87;112049.66;5094550;28;20223;-83
2022/12/12 13:22:37;;;;;;;3.17;2.93;;;24.00;46.10;;;-142.21;37.17;112049.66;5094192;28;20238;-82
2022/12/12 13:25:16;;;;;;;3.10;2.90;;;24.10;45.90;;;-142.21;36.98;112049.66;5073554;28;20632;-83
2022/12/12 13:27:51;;;;;;;3.37;3.13;;;24.10;45.90;;;-142.21;37.11;112049.66;5073753;28;20200;-82
2022/12/12 13:30:25;;;;;;;3.07;2.87;;;24.10;46.00;;;-142.21;37.27;112049.66;5074691;28;20197;-82
2022/12/12 13:33:28;;;;;;;3.37;3.07;;;24.10;45.90;;;-142.21;36.92;112049.66;5073273;28;20204;-83
2022/12/12 13:36:06;;;;;;;3.60;3.30;;;24.10;45.70;;;-142.21;37.22;112049.66;5073334;28;20667;-81
2022/12/12 13:38:34;;;;;;;3.60;3.30;;;24.10;45.90;;;-142.21;36.97;112049.66;5084706;28;20211;-82
2022/12/12 13:41:05;;;;;;;2.90;2.70;;;24.10;46.10;;;-142.21;36.79;112049.66;5093515;28;20628;-82
2022/12/12 13:43:45;;;;;;;3.03;2.83;;;24.10;45.90;;;-142.21;36.80;112049.66;5093771;28;20210;-82
2022/12/12 13:46:41;;;;;;;3.23;3.00;;;24.10;45.70;;;-142.21;36.79;112049.66;5093434;28;20204;-83
2022/12/12 13:49:38;;;;;;;3.37;3.07;;;24.00;45.50;;;-142.21;36.97;112049.66;5092830;28;20232;-82
2022/12/12 13:52:29;;;;;;;2.90;2.70;;;24.00;45.80;;;-142.21;36.74;112049.66;5092914;28;20219;-82
2022/12/12 13:55:22;;;;;;;3.13;2.77;;;24.00;45.50;;;-142.21;37.01;112049.66;5093250;28;20234;-81
2022/12/12 13:58:33;;;;;;;3.40;3.10;;;24.00;45.50;;;-142.21;36.73;112049.66;5093158;28;20200;-82
2022/12/12 14:01:37;;;;;;;3.10;2.90;;;24.00;45.50;;;-142.21;36.83;112049.66;5092432;28;20450;-81
2022/12/12 14:04:05;;;;;;;3.10;2.90;;;24.00;45.40;;;-142.21;36.99;112049.66;5093063;28;20234;-82
2022/12/12 14:06:34;;;;;;;3.33;3.03;;;24.00;45.70;;;-142.21;37.01;112049.66;5093738;28;20203;-82
2022/12/12 14:09:03;;;;;;;3.20;2.87;;;24.00;45.60;;;-142.21;36.74;112049.66;5093007;28;20216;-81
2022/12/12 14:11:36;;;;;;;3.37;3.07;;;24.00;45.60;;;-142.21;36.65;112049.66;5093442;28;20228;-82
2022/12/12 14:14:22;;;;;;;3.00;2.70;;;24.00;45.70;;;-142.21;36.59;112049.66;5093449;28;20203;-82
2022/12/12 14:16:56;;;;;;;3.10;2.73;;;24.00;45.30;;;-142.21;36.73;112049.66;5105113;28;21142;-82
2022/12/12 14:19:34;;;;;;;3.33;3.03;;;24.10;45.50;;;-142.21;36.72;112049.66;5118307;28;20175;-83
2022/12/12 14:22:04;;;;;;;3.17;2.93;;;24.00;45.60;;;-142.21;36.63;112049.66;5097625;28;20557;-83
2022/12/12 14:25:04;;;;;;;3.03;2.73;;;24.00;45.50;;;-142.21;36.75;112049.66;5093283;28;20200;-82
2022/12/12 14:28:17;;;;;;;3.40;3.10;;;24.00;45.10;;;-142.21;36.58;112049.66;5091552;28;20207;-84
2022/12/12 14:31:18;;;;;;;2.97;2.67;;;24.00;45.00;;;-142.21;36.66;112049.66;5022084;28;20312;-82
2022/12/12 14:34:26;;;;;;;3.37;3.07;;;24.00;44.90;;;-142.21;36.88;112049.66;5011084;28;20257;-82
2022/12/12 14:37:37;;;;;;;2.80;2.50;;;24.00;45.20;;;-142.21;36.53;112049.66;5007018;28;20211;-82
2022/12/12 14:40:16;;;;;;;3.23;2.90;;;24.00;45.10;;;-142.21;36.54;112049.66;5092194;28;20629;-82
2022/12/12 14:42:53;;;;;;;2.87;2.67;;;24.00;45.30;;;-142.21;36.29;112049.66;5092784;28;20243;-82
2022/12/12 14:45:31;;;;;;;2.97;2.70;;;24.00;45.40;;;-142.21;36.43;112049.66;5092612;28;20690;-82
2022/12/12 14:48:22;;;;;;;3.20;3.00;;;24.00;45.20;;;-142.21;36.39;112049.66;5091757;28;20208;-83
2022/12/12 14:51:09;;;;;;;3.30;2.90;;;24.00;45.10;;;-142.21;36.69;112049.66;5092291;28;20235;-83
2022/12/12 14:53:51;;;;;;;3.30;3.00;;;24.00;45.20;;;-142.21;36.29;112049.66;5092749;28;20226;-82
2022/12/12 14:56:21;;;;;;;2.97;2.77;;;24.00;45.10;;;-142.21;36.36;112049.66;5092009;28;20207;-82
2022/12/12 14:58:59;;;;;;;3.17;2.97;;;24.00;45.30;;;-142.21;36.32;112049.66;5092565;28;20246;-83
2022/12/12 15:01:34;;;;;;;3.03;2.83;;;24.00;45.20;;;-142.21;36.27;112049.66;5091847;28;20302;-81
2022/12/12 15:04:08;;;;;;;3.13;2.83;;;24.00;45.10;;;-142.21;36.76;112049.66;5092169;28;20600;-82
2022/12/12 15:06:38;;;;;;;2.97;2.77;;;24.00;45.10;;;-142.21;36.54;112049.66;5092028;28;20234;-81
2022/12/12 15:09:23;;;;;;;3.30;3.00;;;24.00;45.20;;;-142.21;36.33;112049.66;5091837;28;20208;-82
2022/12/12 15:12:12;;;;;;;3.37;3.07;;;24.00;45.00;;;-142.21;36.56;112049.66;5092361;28;20282;-83
2022/12/12 15:14:51;;;;;;;3.07;2.77;;;24.00;45.10;;;-142.21;36.47;112049.66;5091801;28;20253;-85
2022/12/12 15:17:24;;;;;;;3.00;2.80;;;23.90;45.10;;;-142.21;36.69;112049.66;5090083;28;20244;-83
2022/12/12 15:20:05;;;;;;;3.23;2.93;;;24.00;45.20;;;-142.21;36.54;112049.66;5092049;28;20650;-81
2022/12/12 15:22:50;;;;;;;3.40;3.10;;;24.00;45.20;;;-142.21;36.54;112049.66;5091992;28;20216;-82
2022/12/12 15:25:22;;;;;;;2.90;2.70;;;24.00;45.20;;;-142.21;36.65;112049.66;5091592;28;20231;-83
2022/12/12 15:27:52;;;;;;;3.10;2.80;;;24.00;45.20;;;-142.21;36.71;112049.66;5092486;28;20204;-81
2022/12/12 15:30:35;;;;;;;3.30;3.00;;;23.90;45.10;;;-142.21;36.71;112049.66;5071300;28;20200;-81
2022/12/12 15:33:14;;;;;;;3.27;2.97;;;23.90;45.10;;;-142.21;36.76;112049.66;5071615;28;20215;-84
2022/12/12 15:35:50;;;;;;;3.00;2.80;;;24.00;45.10;;;-142.21;36.65;112049.66;5072056;28;20212;-82
2022/12/12 15:38:18;;;;;;;3.73;3.43;;;24.00;45.10;;;-142.21;36.81;112049.66;5071457;28;20215;-81
2022/12/12 15:40:53;;;;;;;3.07;2.87;;;23.90;45.10;;;-142.21;36.60;112049.66;5071628;28;20427;-82
2022/12/12 15:43:24;;;;;;;3.07;2.87;;;23.90;45.00;;;-142.21;36.62;112049.66;5051913;28;20286;-82
2022/12/12 15:45:58;;;;;;;3.27;2.97;;;24.00;45.10;;;-142.21;36.85;112049.66;5071586;28;20204;-82
2022/12/12 15:48:26;;;;;;;3.63;3.33;;;23.90;45.10;;;-142.21;36.79;112049.66;5071302;28;20266;-82
2022/12/12 15:51:04;;;;;;;3.13;2.83;;;23.90;45.00;;;-142.21;36.88;112049.66;5071730;28;20201;-82
2022/12/12 15:53:35;;;;;;;3.23;3.00;;;23.90;45.00;;;-142.21;36.85;112049.66;5071990;28;20207;-82
2022/12/12 15:56:10;;;;;;;3.17;2.97;;;23.90;45.10;;;-142.21;36.74;112049.66;5071452;28;20200;-82
2022/12/12 15:58:41;;;;;;;3.10;2.80;;;23.90;45.00;;;-142.21;36.71;112049.66;5071445;28;20211;-82
2022/12/12 16:01:21;;;;;;;3.17;2.93;;;23.90;45.10;;;-142.21;36.62;112049.66;5073054;28;20297;-84
2022/12/12 16:04:01;;;;;;;3.30;3.00;;;23.90;45.00;;;-142.21;36.49;112049.66;5075321;28;20283;-83
2022/12/12 16:09:22;;;;;;;2.90;2.70;;;23.90;45.10;;;-142.21;37.01;112049.66;5072123;28;20201;-82
2022/12/12 16:11:54;;;;;;;3.00;2.80;;;23.90;45.20;;;-142.21;36.69;112049.66;5075404;28;20217;-81
2022/12/12 16:14:36;;;;;;;3.23;2.93;;;23.90;45.10;;;-142.21;36.81;112049.66;5074668;28;20663;-81
2022/12/12 16:17:07;;;;;;;3.03;2.83;;;23.90;44.90;;;-142.21;37.15;112049.66;5075272;28;20212;-82
2022/12/12 16:19:53;;;;;;;3.07;2.77;;;23.90;45.20;;;-142.21;36.90;112049.66;5095723;28;20270;-83
2022/12/12 16:22:33;;;;;;;3.20;2.90;;;23.90;45.10;;;-142.21;36.90;112049.66;5094487;28;20231;-82
2022/12/12 16:25:16;;;;;;;3.03;2.80;;;23.90;45.10;;;-142.21;36.71;112049.66;5074556;28;20207;-83
2022/12/12 16:27:48;;;;;;;3.37;3.07;;;23.80;45.00;;;-142.21;36.87;112049.66;5074531;28;20193;-82
2022/12/12 16:30:16;;;;;;;2.93;2.73;;;23.90;45.20;;;-142.21;37.04;112049.66;5074899;28;20208;-81
2022/12/12 16:32:44;;;;;;;3.47;3.17;;;23.90;45.10;;;-142.21;36.75;112049.66;5074901;28;20212;-82
2022/12/12 16:35:15;;;;;;;3.37;3.10;;;23.90;45.10;;;-142.21;36.79;112049.66;5074024;28;20257;-82
2022/12/12 16:37:43;;;;;;;3.40;3.10;;;23.90;45.10;;;-142.21;36.85;112049.66;5075210;28;20197;-83
2022/12/12 16:40:14;;;;;;;3.23;2.93;;;23.90;45.10;;;-142.21;37.03;112049.66;5074741;28;20236;-83
2022/12/12 16:42:45;;;;;;;3.47;3.17;;;23.90;45.00;;;-142.21;36.72;112049.66;5075413;28;20208;-83
2022/12/12 16:45:12;;;;;;;3.50;2.90;;;23.80;45.00;;;-142.21;36.82;112049.66;5093106;28;20181;-83
2022/12/12 16:47:40;;;;;;;3.30;3.00;;;23.90;45.00;;;-142.21;36.86;112049.66;5099868;28;20185;-83
2022/12/12 16:50:08;;;;;;;3.30;3.00;;;23.90;45.00;;;-142.21;36.74;112049.66;5074039;28;20264;-82
2022/12/12 16:52:36;;;;;;;3.63;2.93;;;23.80;45.00;;;-142.21;36.78;112049.66;5074871;28;20216;-84
2022/12/12 16:55:16;;;;;;;3.20;3.00;;;23.90;45.00;;;-142.21;36.76;112049.66;5074339;28;20205;-83
2022/12/12 16:57:45;;;;;;;3.17;2.90;;;23.90;45.10;;;-142.21;36.56;112049.66;5074591;28;20205;-83
2022/12/12 17:00:14;;;;;;;3.33;3.03;;;23.90;44.90;;;-142.21;36.76;112049.66;5073686;28;20217;-85
2022/12/12 17:02:41;;;;;;;3.57;3.27;;;23.90;45.10;;;-142.21;36.87;112049.66;5074316;28;20227;-83
2022/12/12 17:05:17;;;;;;;3.47;3.17;;;23.90;44.90;;;-142.21;36.85;112049.66;5074106;28;20673;-83
2022/12/12 17:07:45;;;;;;;3.57;3.30;;;23.90;45.10;;;-142.21;36.96;112049.66;5074684;28;20216;-82
2022/12/12 17:10:13;;;;;;;3.10;2.90;;;23.90;44.90;;;-142.21;36.93;112049.66;5073377;28;20671;-81
2022/12/12 17:12:40;;;;;;;3.37;3.07;;;23.90;44.90;;;-142.21;36.64;112049.66;5073825;28;20201;-82
2022/12/12 17:15:16;;;;;;;3.50;3.20;;;23.80;44.80;;;-142.21;37.03;112049.66;5073609;28;20212;-83
2022/12/12 17:17:44;;;;;;;3.13;2.90;;;23.90;45.10;;;-142.21;36.99;112049.66;5078633;28;20196;-83
2022/12/12 17:20:11;;;;;;;3.10;2.90;;;23.90;44.90;;;-142.21;37.06;112049.66;5094087;28;20211;-83
2022/12/12 17:22:39;;;;;;;4.13;3.43;;;23.80;44.80;;;-142.21;36.79;112049.66;5094011;28;20248;-82
2022/12/12 17:25:08;;;;;;;3.30;3.00;;;23.90;45.00;;;-142.21;36.79;112049.66;5093276;28;20209;-83
2022/12/12 17:27:36;;;;;;;3.30;3.00;;;23.90;45.10;;;-142.21;37.03;112049.66;5094456;28;20635;-82
2022/12/12 17:30:05;;;;;;;3.40;3.10;;;23.90;45.10;;;-142.21;36.94;112049.66;5093659;28;20206;-84
2022/12/12 17:32:35;;;;;;;3.40;3.10;;;23.90;45.10;;;-142.21;36.71;112049.66;5094143;28;20208;-83
2022/12/12 17:35:03;;;;;;;3.57;3.27;;;23.90;45.10;;;-142.21;37.03;112049.66;5093807;28;20257;-84
2022/12/12 17:37:31;;;;;;;3.80;3.50;;;23.90;45.00;;;-142.21;36.83;112049.66;5093519;28;20254;-81
2022/12/12 17:39:58;;;;;;;3.50;3.20;;;23.90;45.00;;;-142.21;36.89;112049.66;5075454;28;20213;-81
2022/12/12 17:42:26;;;;;;;3.43;3.13;;;23.90;44.80;;;-142.21;36.87;112049.66;5072986;28;20239;-83
2022/12/12 17:44:53;;;;;;;3.43;3.13;;;23.90;44.90;;;-142.21;37.06;112049.66;5073905;28;20623;-82
2022/12/12 17:47:21;;;;;;;3.50;3.20;;;23.90;44.90;;;-142.21;36.75;112049.66;5072961;28;20208;-82
2022/12/12 17:49:49;;;;;;;3.70;3.40;;;23.90;44.80;;;-142.21;36.85;112049.66;5073269;28;20758;-84
2022/12/12 17:52:17;;;;;;;3.40;3.10;;;23.90;44.90;;;-142.21;36.81;112049.66;5073186;28;20247;-82
2022/12/12 17:54:44;;;;;;;3.83;3.53;;;23.90;44.90;;;-142.21;36.81;112049.66;5073288;28;20232;-83
2022/12/12 17:57:12;;;;;;;4.30;3.90;;;23.90;45.40;;;-142.21;36.12;112049.66;5091649;28;20257;-82
2022/12/12 17:59:39;;;;;;;3.77;3.43;;;23.80;44.10;;;-142.21;36.59;112049.66;5093176;28;20203;-82
2022/12/12 18:02:07;;;;;;;3.40;3.13;;;23.80;44.70;;;-142.21;36.78;112049.66;5092433;28;20224;-83
2022/12/12 18:04:37;;;;;;;3.53;3.23;;;23.80;44.80;;;-142.21;36.83;112049.66;5093650;28;20207;-82
2022/12/12 18:07:10;;;;;;;3.40;3.10;;;23.80;44.80;;;-142.21;36.77;112049.66;5092702;28;20232;-83
2022/12/12 18:09:37;;;;;;;3.70;3.40;;;23.80;44.80;;;-142.21;36.78;112049.66;5091867;28;20199;-82
2022/12/12 18:12:05;;;;;;;4.33;3.70;;;23.90;44.80;;;-142.21;36.88;112049.66;5093010;28;20204;-83
2022/12/12 18:14:36;;;;;;;3.50;3.20;;;23.90;44.90;;;-142.21;36.56;112049.66;5093358;28;20208;-83
2022/12/12 18:17:04;;;;;;;3.57;3.27;;;23.90;44.80;;;-142.21;36.74;112049.66;5093295;28;20206;-83
2022/12/12 18:19:31;;;;;;;3.53;3.23;;;23.90;44.90;;;-142.21;36.55;112049.66;5093371;28;20208;-83
2022/12/12 18:22:09;;;;;;;3.63;3.33;;;23.90;44.70;;;-142.21;36.71;112049.66;5092904;28;20634;-83
2022/12/12 18:24:38;;;;;;;4.00;3.50;;;23.90;44.80;;;-142.21;36.63;112049.66;5092097;28;20207;-82
2022/12/12 18:27:05;;;;;;;3.80;3.50;;;23.90;44.80;;;-142.21;36.45;112049.66;5093154;28;20208;-83